Time;durP1;ratioP1;P1;durP2;ratioP2;P2;SDS_P1;SDS_P2;PMS_P1;PMS_P2;Temp;Humidity;BMP_temperature;BMP_pressure;BME280_temperature;BME280_humidity;BME280_pressure;Samples;Min_cycle;Max_cycle;Signal;HPM_P1;HPM_P2
2021/05/01 00:01:51;;;;;;;25.58;13.75;;;8.10;82.80;;;;;;5052264;28;20491;-71
2021/05/01 00:04:17;;;;;;;25.55;13.45;;;8.00;83.00;;;;;;5051188;28;20033;-71
2021/05/01 00:06:42;;;;;;;28.08;14.48;;;8.10;82.80;;;;;;5051768;28;20027;-71
2021/05/01 00:09:08;;;;;;;25.90;14.57;;;8.10;82.70;;;;;;5051565;28;20025;-73
2021/05/01 00:11:34;;;;;;;23.05;12.85;;;8.10;82.60;;;;;;5071733;28;20032;-71
2021/05/01 00:13:59;;;;;;;23.88;12.77;;;8.10;82.40;;;;;;5071855;28;20078;-71
2021/05/01 00:16:27;;;;;;;25.20;12.77;;;8.00;82.40;;;;;;5073262;28;20021;-71
2021/05/01 00:18:53;;;;;;;23.98;13.20;;;7.90;82.70;;;;;;5072250;28;20016;-71
2021/05/01 00:21:19;;;;;;;26.42;13.65;;;7.90;82.80;;;;;;5071557;28;20047;-71
2021/05/01 00:23:44;;;;;;;24.30;12.15;;;7.80;82.90;;;;;;5072007;28;20059;-71
2021/05/01 00:26:11;;;;;;;26.13;13.48;;;7.80;82.90;;;;;;5072396;28;20093;-71
2021/05/01 00:28:37;;;;;;;23.95;12.68;;;7.80;83.20;;;;;;5071744;28;20185;-71
2021/05/01 00:31:03;;;;;;;24.52;13.27;;;7.70;83.50;;;;;;5071711;28;20559;-73
2021/05/01 00:33:29;;;;;;;22.42;12.68;;;7.70;83.70;;;;;;5070973;28;20044;-71
2021/05/01 00:35:54;;;;;;;27.05;14.77;;;7.60;83.90;;;;;;5072032;28;20021;-71
2021/05/01 00:38:20;;;;;;;27.80;14.23;;;7.60;84.40;;;;;;5072501;28;20055;-71
2021/05/01 00:40:46;;;;;;;28.77;13.98;;;7.60;85.20;;;;;;5073124;28;20398;-70
2021/05/01 00:43:11;;;;;;;24.67;12.98;;;7.70;85.40;;;;;;5072433;28;20395;-70
2021/05/01 00:45:37;;;;;;;26.77;13.43;;;7.70;85.00;;;;;;5071467;28;20483;-70
2021/05/01 00:48:03;;;;;;;29.50;14.20;;;7.70;85.50;;;;;;5071325;28;20020;-70
2021/05/01 00:50:29;;;;;;;28.00;13.18;;;7.70;85.10;;;;;;5070880;28;20055;-72
2021/05/01 00:52:54;;;;;;;25.70;12.68;;;7.70;84.80;;;;;;5071062;28;20024;-72
2021/05/01 00:55:20;;;;;;;27.20;14.02;;;7.70;85.20;;;;;;5071842;28;20413;-73
2021/05/01 00:57:46;;;;;;;31.58;13.77;;;7.70;85.20;;;;;;5071519;28;20020;-73
2021/05/01 01:02:57;;;;;;;26.35;14.13;;;7.80;84.20;;;;;;5072307;28;20074;-72
2021/05/01 01:05:23;;;;;;;25.08;14.23;;;7.80;84.70;;;;;;5071778;28;20016;-70
2021/05/01 01:07:49;;;;;;;28.60;14.07;;;7.70;85.20;;;;;;5070597;28;20120;-70
2021/05/01 01:10:15;;;;;;;29.48;14.02;;;7.70;85.20;;;;;;5070327;28;20103;-72
2021/05/01 01:12:41;;;;;;;27.08;13.35;;;7.70;85.30;;;;;;5070713;28;20536;-70
2021/05/01 01:15:08;;;;;;;27.00;13.45;;;7.70;85.60;;;;;;5071857;28;20028;-76
2021/05/01 01:17:33;;;;;;;24.10;12.68;;;7.60;84.80;;;;;;5071630;28;20052;-70
2021/05/01 01:19:59;;;;;;;25.13;13.00;;;7.60;84.60;;;;;;5072437;28;20059;-70
2021/05/01 01:22:25;;;;;;;22.83;11.45;;;7.50;84.50;;;;;;5070384;28;20030;-70
2021/05/01 01:24:50;;;;;;;21.88;11.55;;;7.50;84.30;;;;;;5070859;28;20032;-70
2021/05/01 01:27:17;;;;;;;26.27;12.07;;;7.50;84.00;;;;;;5069996;28;20116;-70
2021/05/01 01:29:43;;;;;;;21.13;11.38;;;7.50;83.90;;;;;;5070353;28;20020;-71
2021/05/01 01:32:10;;;;;;;24.30;12.75;;;7.50;83.60;;;;;;5069985;28;20031;-73
2021/05/01 01:34:40;;;;;;;24.70;12.57;;;7.60;83.80;;;;;;5072098;28;20021;-72
2021/05/01 01:37:05;;;;;;;22.05;10.73;;;7.70;84.10;;;;;;5071814;28;20021;-70
2021/05/01 01:39:31;;;;;;;22.85;11.65;;;7.70;82.60;;;;;;5069682;28;20044;-70
2021/05/01 01:41:56;;;;;;;20.67;11.50;;;7.50;82.90;;;;;;5070655;28;20059;-70
2021/05/01 01:44:22;;;;;;;25.77;12.03;;;7.40;83.00;;;;;;5070083;28;20025;-71
2021/05/01 01:46:48;;;;;;;22.80;11.88;;;7.30;83.60;;;;;;5070897;28;20027;-70
2021/05/01 01:49:14;;;;;;;25.05;12.13;;;7.20;83.90;;;;;;5069910;28;20043;-71
2021/05/01 01:51:39;;;;;;;24.67;11.65;;;7.10;84.00;;;;;;5070829;28;20024;-71
2021/05/01 01:54:05;;;;;;;24.90;11.65;;;7.10;84.20;;;;;;5071835;28;20346;-70
2021/05/01 01:56:37;;;;;;;22.40;10.73;;;7.00;84.50;;;;;;5070107;28;20024;-70
2021/05/01 01:59:04;;;;;;;21.23;11.32;;;7.00;84.50;;;;;;5070858;28;20025;-70
2021/05/01 02:01:31;;;;;;;22.37;11.50;;;6.90;84.60;;;;;;5071026;28;20029;-70
2021/05/01 02:03:57;;;;;;;21.93;11.80;;;6.90;84.70;;;;;;5072031;28;20020;-70
2021/05/01 02:06:23;;;;;;;23.33;11.73;;;6.90;84.70;;;;;;5070191;28;20074;-71
2021/05/01 02:08:48;;;;;;;21.50;11.27;;;6.90;85.20;;;;;;5071732;28;20082;-70
2021/05/01 02:11:14;;;;;;;24.10;12.60;;;6.80;84.60;;;;;;5053501;28;20021;-70
2021/05/01 02:13:40;;;;;;;21.60;11.40;;;6.80;85.00;;;;;;5050148;28;20028;-70
2021/05/01 02:16:05;;;;;;;24.60;12.37;;;6.80;84.80;;;;;;5051840;28;20021;-70
2021/05/01 02:18:31;;;;;;;23.83;11.87;;;6.80;84.70;;;;;;5049721;28;20032;-71
2021/05/01 02:20:57;;;;;;;25.20;11.87;;;6.80;84.50;;;;;;5051789;28;20044;-71
2021/05/01 02:23:23;;;;;;;25.23;12.77;;;6.80;84.50;;;;;;5049264;28;20465;-70
2021/05/01 02:25:48;;;;;;;21.80;11.63;;;6.60;84.90;;;;;;5051629;28;20373;-71
2021/05/01 02:28:16;;;;;;;22.38;12.50;;;6.70;85.00;;;;;;5053155;28;20028;-70
2021/05/01 02:30:41;;;;;;;25.70;12.80;;;6.60;84.90;;;;;;5055359;28;20075;-71
2021/05/01 02:33:07;;;;;;;21.07;11.10;;;6.60;84.90;;;;;;5053438;28;20450;-75
2021/05/01 02:35:34;;;;;;;24.10;11.60;;;6.60;84.50;;;;;;5054022;28;20487;-70
2021/05/01 02:37:59;;;;;;;25.10;12.23;;;6.60;84.20;;;;;;5055106;28;20024;-71
2021/05/01 02:40:30;;;;;;;24.00;12.33;;;6.60;84.10;;;;;;5053248;28;20040;-71
2021/05/01 02:42:56;;;;;;;23.97;11.80;;;6.60;84.00;;;;;;5054919;28;20454;-70
2021/05/01 02:45:22;;;;;;;23.10;12.03;;;6.50;83.90;;;;;;5054197;28;20247;-70
2021/05/01 02:47:49;;;;;;;21.30;11.37;;;6.50;84.10;;;;;;5053480;28;20017;-71
2021/05/01 02:50:15;;;;;;;25.27;12.60;;;6.40;84.00;;;;;;5054538;28;20029;-70
2021/05/01 02:52:42;;;;;;;25.63;11.93;;;6.30;83.80;;;;;;5053504;28;20025;-70
2021/05/01 02:55:09;;;;;;;23.90;11.37;;;6.30;83.90;;;;;;5053059;28;20373;-74
2021/05/01 02:57:34;;;;;;;25.03;12.30;;;6.30;84.10;;;;;;5053677;28;20024;-70
2021/05/01 03:00:03;;;;;;;21.60;10.90;;;6.30;84.30;;;;;;5053806;28;20071;-71
2021/05/01 03:02:30;;;;;;;24.93;12.37;;;6.20;84.50;;;;;;5069405;28;20047;-70
2021/05/01 03:04:56;;;;;;;23.43;11.47;;;6.30;84.40;;;;;;5053868;28;20056;-70
2021/05/01 03:07:23;;;;;;;25.13;12.43;;;6.30;84.30;;;;;;5052937;28;20055;-70
2021/05/01 03:09:49;;;;;;;22.23;11.40;;;6.20;84.70;;;;;;5054330;28;20453;-70
2021/05/01 03:12:14;;;;;;;21.60;11.67;;;6.20;85.10;;;;;;5053265;28;20025;-70
2021/05/01 03:14:40;;;;;;;23.73;11.23;;;6.30;85.20;;;;;;5055078;28;20062;-70
2021/05/01 03:17:06;;;;;;;24.53;11.07;;;6.30;84.90;;;;;;5054732;28;20462;-70
2021/05/01 03:19:31;;;;;;;20.87;10.93;;;6.30;84.50;;;;;;5054188;28;20028;-69
2021/05/01 03:21:57;;;;;;;22.13;11.10;;;6.30;84.30;;;;;;5053555;28;20029;-70
2021/05/01 03:24:23;;;;;;;19.50;10.47;;;6.30;84.20;;;;;;5053152;28;20025;-70
2021/05/01 03:26:48;;;;;;;23.07;11.00;;;6.30;84.00;;;;;;5054825;28;20453;-70
2021/05/01 03:29:14;;;;;;;22.17;10.87;;;6.30;83.70;;;;;;5053041;28;20017;-70
2021/05/01 03:31:40;;;;;;;23.77;11.53;;;6.30;83.50;;;;;;5054524;28;20033;-70
2021/05/01 03:34:06;;;;;;;20.87;11.10;;;6.20;83.80;;;;;;5053545;28;20020;-70
2021/05/01 03:36:32;;;;;;;21.70;11.87;;;6.10;84.10;;;;;;5054117;28;20021;-70
2021/05/01 03:38:57;;;;;;;18.07;10.47;;;6.00;84.30;;;;;;5053532;28;20531;-69
2021/05/01 03:41:23;;;;;;;20.43;10.70;;;6.10;84.00;;;;;;5052759;28;20025;-70
2021/05/01 03:43:48;;;;;;;19.57;10.23;;;6.10;84.30;;;;;;5053210;28;20472;-69
2021/05/01 03:46:14;;;;;;;21.10;10.90;;;6.10;84.30;;;;;;5054155;28;20025;-70
2021/05/01 03:48:40;;;;;;;18.33;9.67;;;6.10;84.00;;;;;;5054166;28;20473;-70
2021/05/01 03:51:06;;;;;;;24.33;11.13;;;6.10;83.80;;;;;;5053107;28;20045;-70
2021/05/01 03:53:31;;;;;;;19.17;10.53;;;6.00;83.90;;;;;;5052582;28;20029;-70
2021/05/01 03:55:57;;;;;;;20.67;10.27;;;6.00;84.00;;;;;;5053091;28;20032;-71
2021/05/01 03:58:23;;;;;;;23.27;10.90;;;6.10;84.00;;;;;;5053686;28;20021;-70
2021/05/01 04:00:49;;;;;;;21.30;10.97;;;6.10;84.00;;;;;;5052902;28;20381;-70
2021/05/01 04:03:14;;;;;;;20.57;10.27;;;6.00;84.00;;;;;;5052331;28;20025;-70
2021/05/01 04:05:40;;;;;;;24.27;11.20;;;6.00;84.10;;;;;;5052823;28;20047;-70
2021/05/01 04:08:06;;;;;;;21.37;10.47;;;6.00;84.10;;;;;;5053932;28;20021;-70
2021/05/01 04:10:33;;;;;;;22.13;10.90;;;6.00;84.40;;;;;;5052160;28;20057;-70
2021/05/01 04:12:59;;;;;;;19.07;10.53;;;6.00;84.60;;;;;;5052876;28;20468;-70
2021/05/01 04:15:24;;;;;;;19.47;10.20;;;6.00;84.70;;;;;;5052021;28;20024;-70
2021/05/01 04:17:50;;;;;;;19.93;10.77;;;6.00;84.70;;;;;;5052570;28;20032;-70
2021/05/01 04:20:16;;;;;;;19.20;9.67;;;6.00;84.60;;;;;;5053219;28;20020;-70
2021/05/01 04:22:42;;;;;;;21.73;11.07;;;6.00;83.80;;;;;;5053771;28;20025;-69
2021/05/01 04:25:08;;;;;;;20.97;10.67;;;6.10;83.70;;;;;;5052357;28;20369;-70
2021/05/01 04:27:34;;;;;;;18.97;9.93;;;6.20;83.30;;;;;;5051785;28;20369;-70
2021/05/01 04:30:00;;;;;;;21.50;10.07;;;6.10;83.00;;;;;;5052234;28;20108;-70
2021/05/01 04:32:25;;;;;;;18.90;9.90;;;6.10;83.10;;;;;;5053013;28;20112;-70
2021/05/01 04:34:51;;;;;;;18.40;9.87;;;6.00;83.50;;;;;;5052219;28;20032;-70
2021/05/01 04:37:17;;;;;;;18.80;9.27;;;6.00;83.70;;;;;;5053170;28;20025;-70
2021/05/01 04:39:42;;;;;;;20.47;9.93;;;6.00;84.00;;;;;;5051584;28;20053;-70
2021/05/01 04:42:09;;;;;;;21.00;9.60;;;5.90;84.20;;;;;;5052174;28;20108;-70
2021/05/01 04:44:35;;;;;;;19.20;10.20;;;5.90;84.30;;;;;;5051582;28;20033;-69
2021/05/01 04:47:01;;;;;;;17.67;9.80;;;6.00;84.20;;;;;;5053378;28;20094;-70
2021/05/01 04:49:26;;;;;;;19.20;9.60;;;5.90;84.30;;;;;;5052847;28;20459;-70
2021/05/01 04:51:52;;;;;;;20.53;10.43;;;5.90;84.80;;;;;;5052054;28;20025;-70
2021/05/01 04:54:17;;;;;;;20.00;10.70;;;5.80;85.40;;;;;;5051435;28;20021;-70
2021/05/01 04:56:43;;;;;;;18.77;9.60;;;5.80;85.90;;;;;;5052929;28;20028;-70
2021/05/01 04:59:09;;;;;;;17.73;8.83;;;5.90;86.00;;;;;;5051757;28;20017;-70
2021/05/01 05:01:35;;;;;;;21.00;10.40;;;5.90;86.00;;;;;;5052521;28;20078;-70
2021/05/01 05:04:01;;;;;;;18.90;9.67;;;5.80;86.40;;;;;;5053065;28;20029;-70
2021/05/01 05:06:27;;;;;;;19.57;10.60;;;5.90;86.30;;;;;;5051264;28;20029;-70
2021/05/01 05:08:53;;;;;;;19.90;9.90;;;5.90;86.30;;;;;;5052625;28;20107;-70
2021/05/01 05:11:18;;;;;;;20.10;10.07;;;5.90;86.80;;;;;;5052499;28;20082;-70
2021/05/01 05:13:44;;;;;;;16.73;9.27;;;5.90;87.00;;;;;;5051589;28;20017;-70
2021/05/01 05:16:10;;;;;;;20.47;10.63;;;5.90;87.00;;;;;;5052871;28;20512;-70
2021/05/01 05:18:35;;;;;;;19.10;10.40;;;5.90;87.10;;;;;;5051138;28;20124;-70
2021/05/01 05:21:01;;;;;;;20.97;10.50;;;6.00;87.00;;;;;;5051541;28;20025;-70
2021/05/01 05:23:27;;;;;;;22.97;10.43;;;6.10;86.90;;;;;;5050844;28;20052;-70
2021/05/01 05:25:53;;;;;;;19.17;10.00;;;6.20;86.90;;;;;;5051491;28;20067;-70
2021/05/01 05:28:18;;;;;;;19.97;10.07;;;6.20;86.90;;;;;;5052197;28;20045;-71
2021/05/01 05:30:44;;;;;;;18.57;9.73;;;6.30;87.00;;;;;;5051473;28;20028;-71
2021/05/01 05:33:10;;;;;;;18.67;10.07;;;6.30;86.80;;;;;;5052357;28;20476;-70
2021/05/01 05:35:35;;;;;;;17.63;9.30;;;6.40;86.80;;;;;;5052110;28;20108;-71
2021/05/01 05:38:01;;;;;;;19.80;9.37;;;6.50;86.70;;;;;;5050894;28;20458;-71
2021/05/01 05:40:27;;;;;;;20.13;10.70;;;6.50;87.20;;;;;;5050233;28;20474;-70
2021/05/01 05:42:53;;;;;;;21.27;10.47;;;6.50;88.00;;;;;;5049542;28;20032;-70
2021/05/01 05:45:27;;;;;;;17.70;10.17;;;6.70;88.00;;;;;;5051825;28;20365;-71
2021/05/01 05:47:53;;;;;;;21.43;11.33;;;6.70;87.90;;;;;;5047958;28;20029;-70
2021/05/01 05:50:19;;;;;;;17.10;9.57;;;6.80;88.30;;;;;;5047351;28;20454;-70
2021/05/01 05:52:45;;;;;;;20.20;10.13;;;6.90;88.10;;;;;;5047651;28;20039;-70
2021/05/01 05:55:11;;;;;;;19.67;9.65;;;7.00;87.60;;;;;;5051182;28;20025;-70
2021/05/01 05:57:38;;;;;;;19.53;9.40;;;7.20;87.00;;;;;;5050639;28;20051;-69
2021/05/01 06:00:05;;;;;;;17.33;9.17;;;7.20;86.50;;;;;;5051195;28;20017;-70
2021/05/01 06:02:33;;;;;;;19.08;9.52;;;7.30;87.10;;;;;;5051595;28;20025;-71
2021/05/01 06:05:07;;;;;;;20.30;10.13;;;7.40;87.20;;;;;;5055050;28;20098;-71
2021/05/01 06:07:51;;;;;;;18.63;9.87;;;7.60;86.00;;;;;;5054539;28;20405;-71
2021/05/01 06:10:17;;;;;;;18.20;9.98;;;7.70;85.80;;;;;;5054934;28;20394;-71
2021/05/01 06:12:44;;;;;;;18.73;9.82;;;7.70;85.40;;;;;;5053904;28;20131;-71
2021/05/01 06:15:13;;;;;;;17.35;9.40;;;7.90;85.80;;;;;;5054711;28;20031;-71
2021/05/01 06:17:40;;;;;;;19.27;10.30;;;8.00;86.30;;;;;;5053570;28;20519;-71
2021/05/01 06:20:11;;;;;;;17.52;9.88;;;8.00;85.20;;;;;;5054452;28;20021;-71
2021/05/01 06:22:37;;;;;;;20.25;10.68;;;8.00;85.40;;;;;;5054176;28;20082;-71
2021/05/01 06:25:11;;;;;;;18.73;9.65;;;8.10;85.50;;;;;;5054728;28;20094;-71
2021/05/01 06:27:37;;;;;;;18.98;9.40;;;8.20;85.00;;;;;;5054145;28;20479;-71
2021/05/01 06:30:05;;;;;;;18.15;9.65;;;8.30;84.60;;;;;;5054624;28;20075;-71
2021/05/01 06:32:31;;;;;;;19.38;9.85;;;8.40;83.60;;;;;;5054178;28;20412;-71
2021/05/01 06:34:58;;;;;;;19.08;9.70;;;8.40;83.60;;;;;;5054524;28;20094;-70
2021/05/01 06:37:25;;;;;;;18.55;9.88;;;8.60;84.30;;;;;;5055255;28;20025;-71
2021/05/01 06:39:58;;;;;;;19.42;10.10;;;8.70;83.60;;;;;;5055661;28;20049;-70
2021/05/01 06:42:33;;;;;;;17.75;10.48;;;8.70;83.50;;;;;;5053732;28;20116;-71
2021/05/01 06:45:07;;;;;;;19.27;10.57;;;8.80;82.90;;;;;;5055673;28;20530;-70
2021/05/01 06:47:36;;;;;;;18.23;10.35;;;8.90;83.00;;;;;;5053849;28;20021;-71
2021/05/01 06:50:04;;;;;;;17.92;10.05;;;8.90;82.20;;;;;;5055838;28;20021;-71
2021/05/01 06:52:31;;;;;;;18.10;10.32;;;8.90;82.50;;;;;;5033780;28;20351;-71
2021/05/01 06:55:02;;;;;;;17.35;10.20;;;9.00;82.60;;;;;;5033857;28;20030;-71
2021/05/01 06:57:29;;;;;;;16.48;9.52;;;9.10;82.40;;;;;;5034781;28;20044;-71
2021/05/01 06:59:57;;;;;;;18.08;10.25;;;9.10;82.00;;;;;;5035286;28;20478;-71
2021/05/01 07:02:28;;;;;;;19.50;10.13;;;9.20;82.10;;;;;;5046697;28;20063;-75
2021/05/01 07:04:57;;;;;;;18.53;10.33;;;9.20;82.10;;;;;;5053557;28;20033;-71
2021/05/01 07:07:24;;;;;;;17.13;10.35;;;9.30;81.40;;;;;;5053350;28;20025;-75
2021/05/01 07:09:50;;;;;;;17.42;10.25;;;9.30;81.40;;;;;;5052648;28;20032;-71
2021/05/01 07:12:18;;;;;;;17.05;9.35;;;9.40;81.40;;;;;;5053428;28;20028;-71
2021/05/01 07:14:44;;;;;;;19.70;9.98;;;9.40;81.70;;;;;;5052866;28;20023;-71
2021/05/01 07:17:12;;;;;;;19.73;9.65;;;9.50;81.70;;;;;;5052857;28;20017;-71
2021/05/01 07:19:38;;;;;;;18.58;9.88;;;9.50;81.10;;;;;;5053940;28;20066;-70
2021/05/01 07:22:04;;;;;;;15.90;9.32;;;9.60;81.20;;;;;;5054132;28;20033;-71
2021/05/01 07:24:30;;;;;;;17.55;9.57;;;9.60;81.30;;;;;;5053852;28;20074;-71
2021/05/01 07:26:57;;;;;;;17.70;9.57;;;9.70;81.00;;;;;;5053107;28;20020;-70
2021/05/01 07:29:39;;;;;;;17.17;9.52;;;9.80;80.60;;;;;;5052137;28;20017;-71
2021/05/01 07:32:08;;;;;;;17.73;9.95;;;9.90;79.90;;;;;;5054456;28;20052;-71
2021/05/01 07:34:34;;;;;;;17.95;9.77;;;10.00;79.90;;;;;;5052119;28;20054;-71
2021/05/01 07:37:14;;;;;;;19.52;10.05;;;10.00;79.20;;;;;;5049102;28;20013;-71
2021/05/01 07:39:40;;;;;;;20.10;10.88;;;10.10;78.90;;;;;;5055120;28;20405;-70
2021/05/01 07:42:08;;;;;;;18.27;10.07;;;10.20;77.10;;;;;;5047122;28;20026;-72
2021/05/01 07:44:34;;;;;;;19.80;10.65;;;10.20;77.40;;;;;;5040022;28;20040;-72
2021/05/01 07:47:01;;;;;;;17.65;10.05;;;10.30;77.70;;;;;;5050204;28;20017;-71
2021/05/01 07:49:28;;;;;;;19.30;10.82;;;10.30;77.40;;;;;;5053607;28;20025;-71
2021/05/01 07:51:54;;;;;;;21.08;11.32;;;10.30;77.20;;;;;;5053042;28;20039;-71
2021/05/01 07:54:20;;;;;;;20.90;11.20;;;10.40;76.60;;;;;;5053940;28;20025;-71
2021/05/01 07:56:47;;;;;;;21.02;11.60;;;10.50;76.50;;;;;;5052984;28;20355;-71
2021/05/01 07:59:12;;;;;;;44.97;22.27;;;10.50;75.20;;;;;;5052658;28;20057;-70
2021/05/01 08:01:38;;;;;;;41.25;19.42;;;10.60;75.80;;;;;;5051542;28;20481;-71
2021/05/01 08:04:04;;;;;;;37.40;18.55;;;10.70;74.80;;;;;;5051963;28;20025;-71
2021/05/01 08:06:30;;;;;;;24.10;12.30;;;10.80;74.40;;;;;;5050152;28;20108;-72
2021/05/01 08:08:56;;;;;;;22.33;11.82;;;10.90;74.10;;;;;;5050318;28;20033;-73
2021/05/01 08:11:22;;;;;;;17.52;10.18;;;10.90;74.40;;;;;;5052541;28;20423;-71
2021/05/01 08:13:48;;;;;;;20.67;10.98;;;11.00;74.10;;;;;;5054814;28;20045;-71
2021/05/01 08:16:15;;;;;;;20.23;11.73;;;11.00;72.70;;;;;;5051063;28;20063;-71
2021/05/01 08:18:40;;;;;;;18.25;10.77;;;11.00;72.10;;;;;;5051206;28;20043;-71
2021/05/01 08:21:07;;;;;;;18.75;10.23;;;11.00;72.60;;;;;;5053874;28;20509;-70
2021/05/01 08:23:33;;;;;;;17.52;9.73;;;11.10;72.40;;;;;;5056809;28;20029;-73
2021/05/01 08:26:00;;;;;;;18.23;9.77;;;11.20;72.90;;;;;;5052618;28;20459;-70
2021/05/01 08:28:26;;;;;;;18.65;9.68;;;11.10;71.70;;;;;;5050529;28;20446;-73
2021/05/01 08:30:52;;;;;;;16.40;9.07;;;11.20;71.70;;;;;;5051119;28;20017;-72
2021/05/01 08:33:17;;;;;;;19.23;9.90;;;11.10;71.40;;;;;;5053086;28;20029;-72
2021/05/01 08:35:43;;;;;;;16.05;9.65;;;11.20;70.40;;;;;;5051821;28;20441;-72
2021/05/01 08:38:09;;;;;;;17.85;10.07;;;11.10;70.40;;;;;;5052364;28;20045;-70
2021/05/01 08:40:35;;;;;;;16.92;9.70;;;11.20;71.30;;;;;;5050913;28;20470;-71
2021/05/01 08:43:01;;;;;;;16.52;9.38;;;11.20;72.70;;;;;;5032313;28;20032;-73
2021/05/01 08:45:28;;;;;;;21.05;10.90;;;11.30;70.20;;;;;;5032570;28;20029;-71
2021/05/01 08:47:54;;;;;;;19.20;10.68;;;11.40;69.20;;;;;;5031412;28;20029;-73
2021/05/01 08:50:26;;;;;;;17.23;10.00;;;11.40;68.40;;;;;;5032346;28;20021;-73
2021/05/01 08:52:52;;;;;;;16.30;8.80;;;11.40;69.20;;;;;;5031260;28;20021;-71
2021/05/01 08:55:20;;;;;;;17.02;9.95;;;11.50;70.00;;;;;;5045806;28;20033;-71
2021/05/01 08:57:46;;;;;;;14.55;8.95;;;11.60;70.00;;;;;;5051970;28;20036;-71
2021/05/01 09:00:13;;;;;;;16.63;9.35;;;11.60;68.30;;;;;;5051136;28;20100;-71
2021/05/01 09:02:40;;;;;;;17.50;9.63;;;11.60;68.20;;;;;;5033671;28;20033;-71
2021/05/01 09:05:09;;;;;;;16.05;9.20;;;11.70;68.20;;;;;;5052328;28;20059;-72
2021/05/01 09:07:37;;;;;;;17.60;10.18;;;11.70;67.40;;;;;;5052130;28;20100;-72
2021/05/01 09:10:07;;;;;;;16.15;9.75;;;11.70;68.30;;;;;;5050610;28;20112;-75
2021/05/01 09:12:42;;;;;;;16.75;9.68;;;11.70;69.00;;;;;;5050411;28;20041;-72
2021/05/01 09:15:11;;;;;;;19.63;11.00;;;11.70;67.90;;;;;;5050967;28;20454;-72
2021/05/01 09:17:37;;;;;;;21.02;11.23;;;11.80;67.90;;;;;;5050283;28;20028;-72
2021/05/01 09:20:17;;;;;;;21.08;11.43;;;11.90;68.20;;;;;;5033662;28;20025;-72
2021/05/01 09:22:57;;;;;;;18.88;11.45;;;12.00;69.30;;;;;;5051706;28;20025;-72
2021/05/01 09:25:28;;;;;;;22.17;12.50;;;12.20;67.40;;;;;;5050475;28;20029;-72
2021/05/01 09:28:14;;;;;;;23.15;12.80;;;12.10;68.10;;;;;;5050318;28;20119;-72
2021/05/01 09:30:43;;;;;;;22.02;12.55;;;12.10;68.80;;;;;;5051048;28;20024;-71
2021/05/01 09:33:17;;;;;;;22.67;13.27;;;12.20;68.50;;;;;;5051410;28;20056;-72
2021/05/01 09:35:48;;;;;;;25.73;12.80;;;12.20;69.30;;;;;;5058801;28;20020;-71
2021/05/01 09:38:14;;;;;;;24.17;12.70;;;12.30;68.70;;;;;;5069908;28;20040;-73
2021/05/01 09:40:45;;;;;;;21.92;11.93;;;12.30;67.90;;;;;;5054586;28;20025;-71
2021/05/01 09:43:11;;;;;;;17.90;10.40;;;12.40;67.30;;;;;;5052731;28;20025;-73
2021/05/01 09:45:38;;;;;;;18.70;10.02;;;12.40;68.80;;;;;;5052101;28;20040;-72
2021/05/01 09:48:18;;;;;;;17.50;10.40;;;12.50;67.60;;;;;;5050804;28;20067;-73
2021/05/01 09:50:46;;;;;;;21.00;11.98;;;12.40;67.80;;;;;;5051945;28;20079;-73
2021/05/01 09:53:17;;;;;;;24.45;12.48;;;12.50;66.80;;;;;;5051043;28;20029;-70
2021/05/01 09:55:54;;;;;;;19.40;11.27;;;12.50;65.50;;;;;;5034242;28;20449;-71
2021/05/01 09:58:28;;;;;;;21.65;10.85;;;12.50;65.10;;;;;;5050564;28;20043;-74
2021/05/01 10:01:14;;;;;;;16.52;9.90;;;12.60;66.40;;;;;;5059113;28;20052;-73
2021/05/01 10:03:40;;;;;;;16.67;10.38;;;12.70;64.90;;;;;;5050721;28;20466;-72
2021/05/01 10:06:09;;;;;;;15.40;9.23;;;12.80;66.20;;;;;;5053369;28;20025;-73
2021/05/01 10:08:35;;;;;;;18.35;9.85;;;12.90;64.40;;;;;;5052012;28;20029;-71
2021/05/01 10:11:12;;;;;;;17.60;9.93;;;12.90;62.10;;;;;;5052221;28;20028;-72
2021/05/01 10:13:53;;;;;;;15.70;9.30;;;13.00;63.10;;;;;;5034194;28;20124;-71
2021/05/01 10:16:19;;;;;;;16.75;9.75;;;13.00;61.80;;;;;;5052284;28;20033;-72
2021/05/01 10:19:07;;;;;;;17.98;9.70;;;13.00;62.30;;;;;;5050435;28;20032;-71
2021/05/01 10:21:34;;;;;;;21.05;9.88;;;13.20;62.70;;;;;;5050416;28;20025;-71
2021/05/01 10:24:03;;;;;;;17.05;9.55;;;13.20;62.20;;;;;;5050938;28;20029;-70
2021/05/01 10:26:45;;;;;;;16.40;9.25;;;13.30;62.10;;;;;;5050753;28;20021;-78
2021/05/01 10:29:23;;;;;;;;;;;13.30;62.20;;;;;;5052865;28;20514;-71
2021/05/01 10:31:54;;;;;;;15.95;8.80;;;13.40;61.60;;;;;;5051587;28;20420;-71
2021/05/01 10:34:24;;;;;;;17.33;9.30;;;13.50;61.40;;;;;;5052007;28;20066;-72
2021/05/01 10:36:53;;;;;;;15.60;8.73;;;13.40;60.30;;;;;;5051024;28;20110;-70
2021/05/01 10:39:18;;;;;;;21.50;12.15;;;13.50;60.10;;;;;;5051306;28;20131;-70
2021/05/01 10:42:02;;;;;;;51.58;26.08;;;13.50;59.70;;;;;;5050763;28;20116;-70
2021/05/01 10:44:28;;;;;;;17.65;10.45;;;13.50;61.40;;;;;;5051143;28;20052;-70
2021/05/01 10:47:11;;;;;;;13.70;8.13;;;13.60;63.30;;;;;;5049886;28;20024;-70
2021/05/01 10:49:37;;;;;;;16.48;9.32;;;13.60;61.80;;;;;;5051612;28;20013;-69
2021/05/01 10:52:18;;;;;;;18.67;10.52;;;13.60;60.30;;;;;;5053314;28;20070;-69
2021/05/01 10:55:05;;;;;;;21.23;12.27;;;13.60;61.30;;;;;;5050830;28;20080;-69
2021/05/01 10:57:35;;;;;;;19.73;11.13;;;13.60;60.30;;;;;;5050508;28;20033;-72
2021/05/01 11:00:12;;;;;;;21.17;11.77;;;13.60;60.60;;;;;;5052829;28;20474;-68
2021/05/01 11:02:43;;;;;;;22.50;11.00;;;13.60;60.30;;;;;;5049553;28;20148;-70
2021/05/01 11:05:13;;;;;;;17.27;10.55;;;13.60;60.50;;;;;;5040494;28;20111;-70
2021/05/01 11:07:44;;;;;;;20.85;11.27;;;13.50;60.50;;;;;;5054011;28;20082;-70
2021/05/01 11:10:15;;;;;;;20.35;11.35;;;13.50;60.70;;;;;;5054224;28;20033;-70
2021/05/01 11:12:52;;;;;;;17.58;10.48;;;13.50;60.50;;;;;;5053148;28;20515;-70
2021/05/01 11:15:23;;;;;;;17.60;10.75;;;13.50;60.30;;;;;;5054600;28;20033;-70
2021/05/01 11:18:08;;;;;;;;;;;13.50;60.40;;;;;;5052914;28;20017;-70
2021/05/01 11:20:35;;;;;;;19.88;11.32;;;13.50;60.10;;;;;;5051390;28;20362;-75
2021/05/01 11:23:01;;;;;;;19.25;11.70;;;13.40;60.50;;;;;;5052300;28;20114;-70
2021/05/01 11:25:28;;;;;;;20.92;12.23;;;13.30;60.90;;;;;;5052626;28;20070;-71
2021/05/01 11:27:57;;;;;;;24.45;13.43;;;13.20;61.50;;;;;;5053471;28;20016;-70
2021/05/01 11:30:27;;;;;;;21.92;12.20;;;13.20;61.90;;;;;;5053021;28;20108;-71
2021/05/01 11:32:54;;;;;;;31.58;15.77;;;13.20;61.90;;;;;;5052379;28;20044;-72
2021/05/01 11:35:25;;;;;;;21.13;11.68;;;13.30;62.00;;;;;;5052971;28;20024;-71
2021/05/01 11:37:55;;;;;;;20.60;12.57;;;13.40;60.90;;;;;;5051107;28;20031;-71
2021/05/01 11:40:25;;;;;;;21.58;11.95;;;13.40;61.20;;;;;;5042026;28;20017;-70
2021/05/01 11:42:53;;;;;;;21.85;12.25;;;13.50;61.10;;;;;;5047140;28;20032;-71
2021/05/01 11:45:43;;;;;;;19.60;12.10;;;13.50;60.60;;;;;;5043771;28;20399;-70
2021/05/01 11:48:14;;;;;;;24.35;13.90;;;13.50;60.70;;;;;;5026528;28;20504;-71
2021/05/01 11:50:41;;;;;;;29.95;16.08;;;13.50;60.50;;;;;;5015408;28;20370;-70
2021/05/01 11:53:29;;;;;;;24.35;13.32;;;13.50;60.60;;;;;;5034001;28;20246;-70
2021/05/01 11:56:02;;;;;;;18.85;10.88;;;13.60;60.40;;;;;;5014346;28;20028;-71
2021/05/01 11:58:35;;;;;;;19.13;10.90;;;13.60;61.20;;;;;;5014091;28;20029;-71
2021/05/01 12:01:22;;;;;;;17.65;10.52;;;13.80;60.30;;;;;;5033472;28;20017;-72
2021/05/01 12:04:00;;;;;;;17.10;10.68;;;13.80;60.00;;;;;;5033520;28;20112;-71
2021/05/01 12:06:29;;;;;;;17.63;10.07;;;13.80;59.40;;;;;;5015693;28;20030;-71
2021/05/01 12:09:11;;;;;;;18.13;10.88;;;13.90;59.30;;;;;;5032546;28;20051;-72
2021/05/01 12:11:37;;;;;;;18.60;11.05;;;14.00;59.10;;;;;;4999864;28;20033;-72
2021/05/01 12:14:11;;;;;;;18.85;10.70;;;14.10;60.00;;;;;;5032290;28;20060;-74
2021/05/01 12:16:37;;;;;;;20.17;11.25;;;14.20;58.60;;;;;;5032792;28;20052;-73
2021/05/01 12:19:04;;;;;;;19.23;11.15;;;14.20;58.60;;;;;;5032878;28;20362;-73
2021/05/01 12:21:44;;;;;;;21.42;11.98;;;14.40;59.10;;;;;;5015731;28;20021;-73
2021/05/01 12:24:31;;;;;;;17.17;10.43;;;14.50;60.00;;;;;;5016222;28;20025;-72
2021/05/01 12:26:58;;;;;;;18.85;10.70;;;14.60;59.70;;;;;;5015660;28;20032;-71
2021/05/01 12:29:25;;;;;;;18.90;11.20;;;14.70;60.00;;;;;;5033625;28;20024;-71
2021/05/01 12:31:56;;;;;;;18.90;10.63;;;14.70;59.10;;;;;;5015566;28;20029;-73
2021/05/01 12:34:51;;;;;;;18.15;11.93;;;14.70;57.50;;;;;;5015598;28;20021;-71
2021/05/01 12:37:19;;;;;;;18.92;11.75;;;14.70;58.50;;;;;;5015110;28;20036;-70
2021/05/01 12:39:47;;;;;;;19.27;10.95;;;14.80;59.20;;;;;;5043578;28;20053;-70
2021/05/01 12:42:25;;;;;;;19.45;11.18;;;14.90;57.90;;;;;;5053322;28;20484;-70
2021/05/01 12:44:52;;;;;;;25.25;13.73;;;14.90;56.80;;;;;;5051786;28;20036;-70